Data for 10/29/2018

Time Sea-Level Adjusted Pressure Absolute Pressure Temperature Relative Humidity Dew Point   
(mb) (inHg) (mb) (inHg) (C) (F) (%) (C) (F)
00:05 1016 30 846 24.98 5.5 41.9 78 1.9 35.4
00:10 1016 30 846 24.98 5.4 41.8 78 1.9 35.4
00:15 1016 30 846 24.98 5.4 41.7 78 1.8 35.3
00:20 1016 30 845 24.95 5.3 41.6 78 1.8 35.3
00:25 1016 30 845 24.95 5.3 41.5 78 1.7 35.1
00:30 1016 30 845 24.95 5.4 41.6 77 1.7 35
00:35 1016 30 845 24.95 5.4 41.7 76 1.5 34.6
00:40 1016 30 845 24.95 5.4 41.7 76 1.6 34.8
00:45 1016 30 845 24.95 5.5 41.8 76 1.5 34.8
00:50 1016 30 845 24.95 5.5 41.8 76 1.6 34.9
00:55 1016 30 845 24.95 5.5 41.9 76 1.6 34.9
01:00 1016 30 845 24.95 5.4 41.8 76 1.5 34.8
01:05 1016 30 845 24.95 5.4 41.7 76 1.5 34.7
01:10 1016 30 845 24.95 5.3 41.6 76 1.5 34.6
01:15 1016 30 845 24.95 5.3 41.6 76 1.4 34.6
01:20 1016 30 845 24.95 5.2 41.4 77 1.5 34.7
01:25 1016 30 846 24.98 5.1 41.1 77 1.4 34.5
01:30 1017 30.03 846 24.98 5 40.9 78 1.4 34.5
01:35 1017 30.03 846 24.98 4.9 40.9 79 1.6 34.8
01:40 1017 30.03 846 24.98 4.9 40.8 80 1.8 35.2
01:45 1017 30.03 846 24.98 4.9 40.8 81 1.9 35.4
01:50 1016 30 846 24.98 4.9 40.8 81 1.9 35.5
01:55 1016 30 846 24.98 4.9 40.8 81 1.9 35.5
02:00 1017 30.03 846 24.98 4.8 40.7 82 1.9 35.5
02:05 1017 30.03 846 24.98 4.7 40.5 82 2 35.5
02:10 1017 30.03 846 24.98 4.7 40.4 83 2 35.6
02:15 1017 30.03 846 24.98 4.6 40.2 83 1.9 35.5
02:20 1017 30.03 846 24.98 4.4 39.9 84 2 35.5
02:25 1017 30.03 846 24.98 4.2 39.6 85 1.9 35.5
02:30 1017 30.03 846 24.98 4 39.3 86 2 35.5
02:35 1017 30.03 846 24.98 3.9 39.1 87 2 35.6
02:40 1017 30.03 846 24.98 3.9 39 88 2 35.6
02:45 1017 30.03 846 24.98 3.8 38.9 89 2.1 35.8
02:50 1017 30.03 846 24.98 3.8 38.9 88 2.1 35.7
02:55 1016 30 846 24.98 3.6 38.5 88 1.8 35.3
03:00 1016 30 846 24.98 3.4 38.1 88 1.6 34.9
03:05 1016 30 845 24.95 3.3 37.9 89 1.6 34.8
03:10 1016 30 845 24.95 3.2 37.8 89 1.6 34.8
03:15 1016 30 845 24.95 3.2 37.7 89 1.5 34.8
03:20 1016 30 846 24.98 3.1 37.6 89 1.5 34.6
03:25 1016 30 846 24.98 3.1 37.6 89 1.5 34.7
03:30 1016 30 846 24.98 3.1 37.5 89 1.5 34.7
03:35 1016 30 845 24.95 3 37.3 90 1.5 34.6
03:40 1016 30 845 24.95 2.9 37.2 90 1.5 34.7
03:45 1016 30 845 24.95 2.9 37.2 91 1.5 34.7
03:50 1016 30 845 24.95 2.9 37.2 91 1.5 34.7
03:55 1016 30 845 24.95 2.8 37 91 1.4 34.5
04:00 1016 30 845 24.95 2.7 36.9 90 1.2 34.2
04:05 1016 30 845 24.95 2.8 37 88 1 33.8
04:10 1016 30 845 24.95 2.8 37 89 1.1 34
04:15 1016 30 845 24.95 2.8 37.1 88 1 33.8
04:20 1016 30 845 24.95 3 37.5 87 1.1 33.9
04:25 1016 30 845 24.95 3.1 37.5 86 1 33.8
04:30 1016 30 845 24.95 3.3 38 83 0.7 33.2
04:35 1016 30 845 24.95 3.4 38.1 83 0.7 33.3
04:40 1016 30 845 24.95 3.4 38.1 83 0.8 33.5
04:45 1016 30 845 24.95 3.4 38.2 82 0.7 33.2
04:50 1016 30 845 24.95 3.5 38.2 81 0.5 32.9
04:55 1016 30 845 24.95 3.5 38.4 81 0.6 33.1
05:00 1016 30 845 24.95 3.9 38.9 78 0.4 32.8
05:05 1016 30 845 24.95 4.1 39.3 75 0.1 32.2
05:10 1016 30 845 24.95 4.4 39.9 72 -0.2 31.7
05:15 1016 30 845 24.95 4.6 40.2 70 -0.5 31.1
05:20 1016 30 845 24.95 4.6 40.2 71 -0.2 31.6
05:25 1016 30 845 24.95 4.4 40 74 0.1 32.2
05:30 1016 30 845 24.95 4.1 39.3 76 0.3 32.5
05:35 1016 30 845 24.95 3.9 39 78 0.3 32.6
05:40 1016 30 845 24.95 3.8 38.8 79 0.4 32.7
05:45 1016 30 845 24.95 3.7 38.7 78 0.3 32.5
05:50 1016 30 845 24.95 3.7 38.6 77 0.1 32.2
05:55 1016 30 845 24.95 3.7 38.7 78 0.3 32.5
06:00 1016 30 845 24.95 3.8 38.8 78 0.3 32.5
06:05 1016 30 845 24.95 3.7 38.7 78 0.2 32.4
06:10 1016 30 845 24.95 3.8 38.8 76 -0.1 31.8
06:15 1016 30 845 24.95 3.9 39 76 -0 32
06:20 1016 30 845 24.95 3.9 39 76 -0 32
06:25 1016 30 845 24.95 3.8 38.8 76 -0.1 31.9
06:30 1016 30 845 24.95 3.7 38.7 76 -0.1 31.8
06:35 1016 30 845 24.95 3.6 38.5 77 -0.1 31.9
06:40 1016 30 845 24.95 3.6 38.5 77 -0 32
06:45 1016 30 845 24.95 3.5 38.4 78 0 32
06:50 1016 30 845 24.95 3.6 38.4 78 0.1 32.2
06:55 1016 30 845 24.95 3.5 38.2 79 0.2 32.3
07:00 1016 30 845 24.95 3.3 38 80 0.2 32.3
07:05 1016 30 845 24.95 3.3 37.9 80 0.2 32.3
07:10 1016 30 845 24.95 3.2 37.8 80 0.1 32.2
07:15 1016 30 845 24.95 3.2 37.8 80 0.1 32.2
07:20 1016 30 845 24.95 3.3 37.9 80 0.1 32.2
07:25 1016 30 845 24.95 3.2 37.8 80 0.2 32.3
07:30 1016 30 846 24.98 3.2 37.7 81 0.2 32.3
07:35 1016 30 846 24.98 3.2 37.8 81 0.4 32.6
07:40 1017 30.03 846 24.98 3.3 37.9 81 0.4 32.7
07:45 1017 30.03 846 24.98 3.3 38 81 0.4 32.7
07:50 1017 30.03 846 24.98 3.4 38.1 81 0.5 32.8
07:55 1017 30.03 846 24.98 3.5 38.3 81 0.6 33.1
08:00 1017 30.03 846 24.98 3.6 38.5 85 1.3 34.4
08:05 1017 30.03 846 24.98 3.5 38.2 86 1.4 34.5
08:10 1017 30.03 846 24.98 3.4 38 86 1.3 34.3
08:15 1017 30.03 846 24.98 3.2 37.7 85 0.9 33.6
08:20 1017 30.03 846 24.98 3 37.5 84 0.6 33.1
08:25 1017 30.03 846 24.98 3 37.4 83 0.4 32.8
08:30 1017 30.03 847 25.01 3 37.4 83 0.4 32.8
08:35 1017 30.03 847 25.01 3 37.4 83 0.4 32.8
08:40 1017 30.03 847 25.01 3 37.5 82 0.3 32.5
08:45 1017 30.03 847 25.01 3.1 37.7 80 0.1 32.1
08:50 1017 30.03 847 25.01 3.1 37.6 79 -0.2 31.7
08:55 1017 30.03 847 25.01 3 37.4 79 -0.3 31.4
09:00 1018 30.06 847 25.01 3.1 37.5 79 -0.2 31.6
09:05 1018 30.06 847 25.01 3.3 37.9 79 -0.1 31.8
09:10 1017 30.03 847 25.01 3.6 38.5 78 0 32.1
09:15 1018 30.06 847 25.01 3.9 39 77 0.1 32.3
09:20 1018 30.06 847 25.01 4.1 39.3 75 0.1 32.2
09:25 1018 30.06 847 25.01 4.1 39.4 76 0.4 32.7
09:30 1018 30.06 847 25.01 4.3 39.8 76 0.4 32.8
09:35 1018 30.06 847 25.01 4.4 39.8 76 0.4 32.8
09:40 1018 30.06 847 25.01 4 39.3 79 0.7 33.2
09:45 1018 30.06 847 25.01 4.2 39.5 80 1 33.9
09:50 1018 30.06 847 25.01 4.5 40.1 78 1 33.8
09:55 1018 30.06 847 25.01 4.4 39.8 81 1.4 34.5
10:00 1018 30.06 847 25.01 4.6 40.3 79 1.3 34.3
10:05 1018 30.06 847 25.01 4.9 40.8 75 0.8 33.5
10:10 1018 30.06 847 25.01 5 40.9 70 -0.1 31.9
10:15 1018 30.06 847 25.01 5.4 41.8 69 0.2 32.4
10:20 1018 30.06 847 25.01 6.1 42.9 64 -0.3 31.5
10:25 1018 30.06 847 25.01 6.4 43.4 63 -0.2 31.6
10:30 1018 30.06 847 25.01 6.6 43.9 62 -0.2 31.6
10:35 1018 30.06 847 25.01 6.6 43.8 61 -0.5 31.2
10:40 1018 30.06 847 25.01 6.6 43.8 62 -0.3 31.5
10:45 1018 30.06 847 25.01 6.6 43.9 61 -0.3 31.5
10:50 1018 30.06 847 25.01 6.5 43.8 64 0.1 32.3
10:55 1018 30.06 847 25.01 6.6 43.8 64 0.2 32.3
11:00 1018 30.06 847 25.01 6.3 43.3 64 0.1 32.1
11:05 1018 30.06 847 25.01 6 42.9 63 -0.5 31
11:10 1018 30.06 847 25.01 6.2 43.1 62 -0.5 31.1
11:15 1018 30.06 847 25.01 6.5 43.7 62 -0.2 31.7
11:20 1018 30.06 847 25.01 6.8 44.2 59 -0.7 30.8
11:25 1018 30.06 847 25.01 6.9 44.3 58 -0.8 30.5
11:30 1018 30.06 847 25.01 7.6 45.6 55 -1 30.3
11:35 1018 30.06 847 25.01 7.6 45.7 56 -0.6 30.9
11:40 1018 30.06 847 25.01 7.1 44.7 55 -1.2 29.8
11:45 1018 30.06 847 25.01 6.8 44.2 57 -1 30.1
11:50 1018 30.06 847 25.01 6.5 43.7 59 -0.9 30.3
11:55 1018 30.06 847 25.01 6.1 43 55 -2.1 28.2
12:00 1018 30.06 847 25.01 6 42.7 57 -1.8 28.7
12:05 1018 30.06 847 25.01 6 42.8 58 -1.5 29.3
12:10 1018 30.06 847 25.01 6.1 43 55 -2.2 28.1
12:15 1018 30.06 847 25.01 6 42.9 56 -2 28.4
12:20 1018 30.06 847 25.01 6.1 43 55 -2.3 27.9
12:25 1018 30.06 847 25.01 6.2 43.2 54 -2.5 27.6
12:30 1018 30.06 847 25.01 6.3 43.3 56 -1.8 28.7
12:35 1018 30.06 847 25.01 6.3 43.3 56 -1.8 28.7
12:40 1018 30.06 847 25.01 6.7 44 53 -2.2 28.1
12:45 1018 30.06 847 25.01 6.9 44.3 53 -2 28.4
12:50 1018 30.06 847 25.01 7 44.5 53 -2 28.3
12:55 1018 30.06 847 25.01 7.2 45 51 -2.3 27.8
13:00 1018 30.06 847 25.01 7.2 45 53 -1.8 28.8
13:05 1018 30.06 847 25.01 7 44.7 53 -1.9 28.5
13:10 1018 30.06 847 25.01 7.2 44.9 54 -1.6 29.1
13:15 1018 30.06 847 25.01 7.2 45 52 -2 28.5
13:20 1018 30.06 847 25.01 7.3 45.1 51 -2.2 28.1
13:25 1018 30.06 847 25.01 7.7 45.8 50 -2 28.4
13:30 1018 30.06 847 25.01 7.7 45.9 50 -2.1 28.2
13:35 1018 30.06 847 25.01 7.4 45.4 51 -2 28.5
13:40 1018 30.06 847 25.01 7.6 45.7 50 -2.1 28.2
13:45 1018 30.06 847 25.01 7 44.7 56 -1.1 30
13:50 1018 30.06 847 25.01 6.8 44.2 57 -1.3 29.7
13:55 1018 30.06 847 25.01 6.8 44.3 57 -1.2 29.9
14:00 1018 30.06 847 25.01 6.2 43.2 56 -1.9 28.7
14:05 1018 30.06 847 25.01 6.1 43 56 -1.9 28.6
14:10 1018 30.06 847 25.01 6.2 43.2 56 -1.9 28.5
14:15 1018 30.06 847 25.01 6.3 43.4 55 -2.1 28.2
14:20 1018 30.06 847 25.01 6.5 43.6 55 -1.9 28.6
14:25 1018 30.06 847 25.01 6.6 43.9 55 -1.8 28.7
14:30 1018 30.06 847 25.01 6.6 43.8 57 -1.2 29.8
14:35 1018 30.06 847 25.01 6.5 43.8 60 -0.7 30.7
14:40 1018 30.06 847 25.01 6.6 43.9 53 -2.2 28.1
14:45 1018 30.06 847 25.01 7 44.6 53 -2 28.4
14:50 1018 30.06 847 25.01 7.2 44.9 52 -2.1 28.2
14:55 1018 30.06 847 25.01 7.3 45.2 51 -2 28.3
15:00 1018 30.06 847 25.01 7.5 45.4 52 -1.8 28.8
15:05 1018 30.06 847 25.01 6.8 44.2 54 -1.9 28.6
15:10 1018 30.06 847 25.01 6.7 44 54 -2 28.4
15:15 1018 30.06 847 25.01 6.9 44.5 52 -2.3 27.8
15:20 1018 30.06 847 25.01 7 44.6 51 -2.3 27.8
15:25 1018 30.06 847 25.01 7.2 44.9 50 -2.5 27.4
15:30 1018 30.06 847 25.01 7.2 44.9 53 -1.8 28.8
15:35 1018 30.06 847 25.01 6.9 44.5 54 -1.8 28.8
15:40 1018 30.06 847 25.01 6.8 44.2 54 -1.8 28.8
15:45 1018 30.06 847 25.01 6.8 44.3 54 -1.9 28.6
15:50 1018 30.06 847 25.01 6.9 44.5 53 -1.9 28.6
15:55 1018 30.06 847 25.01 6.7 44 52 -2.4 27.7
16:00 1018 30.06 847 25.01 6.6 43.9 54 -2.1 28.3
16:05 1018 30.06 847 25.01 6.6 43.9 52 -2.5 27.5
16:10 1018 30.06 847 25.01 6.9 44.4 53 -2.1 28.2
16:15 1018 30.06 847 25.01 6.7 44.1 54 -1.9 28.5
16:20 1018 30.06 847 25.01 6.6 43.9 53 -2.3 27.9
16:25 1018 30.06 847 25.01 6.6 43.9 54 -2.1 28.2
16:30 1018 30.06 847 25.01 6.6 44 53 -2.2 28.1
16:35 1018 30.06 847 25.01 6.6 43.8 53 -2.2 28
16:40 1018 30.06 847 25.01 6.5 43.7 53 -2.3 27.9
16:45 1018 30.06 848 25.04 6.5 43.7 55 -1.8 28.8
16:50 1019 30.09 848 25.04 5.6 42 67 -0.1 31.9
16:55 1020 30.12 849 25.07 3 37.5 79 -0.2 31.7
17:00 1020 30.12 849 25.07 1.7 35.1 85 -0.5 31.2
17:05 1020 30.12 849 25.07 1.1 33.9 88 -0.7 30.7
17:10 1020 30.12 849 25.07 0.9 33.6 89 -0.7 30.7
17:15 1020 30.12 849 25.07 1 33.7 89 -0.6 30.9
17:20 1020 30.12 849 25.07 1 33.8 89 -0.6 31
17:25 1020 30.12 849 25.07 1.1 34 89 -0.5 31.2
17:30 1020 30.12 849 25.07 1.1 34 89 -0.5 31.2
17:35 1020 30.12 849 25.07 1.1 33.9 89 -0.5 31.1
17:40 1020 30.12 849 25.07 1.1 33.9 90 -0.3 31.4
17:45 1020 30.12 849 25.07 1 33.9 90 -0.4 31.3
17:50 1020 30.12 849 25.07 0.9 33.7 91 -0.4 31.3
17:55 1020 30.12 849 25.07 0.9 33.6 91 -0.4 31.2
18:00 1020 30.12 850 25.1 1.1 33.9 91 -0.3 31.5
18:05 1021 30.15 850 25.1 1.2 34.2 90 -0.2 31.6
18:10 1021 30.15 850 25.1 1.2 34.1 89 -0.4 31.3
18:15 1021 30.15 850 25.1 1.1 34 90 -0.4 31.3
18:20 1021 30.15 850 25.1 1 33.7 90 -0.5 31.1
18:25 1021 30.15 850 25.1 0.9 33.7 90 -0.5 31.1
18:30 1021 30.15 850 25.1 1 33.8 90 -0.4 31.2
18:35 1021 30.15 850 25.1 1.1 34 89 -0.5 31.1
18:40 1021 30.15 850 25.1 1.1 34 89 -0.6 31
18:45 1021 30.15 850 25.1 1.2 34.1 88 -0.6 30.9
18:50 1021 30.15 850 25.1 1.3 34.3 87 -0.6 30.9
18:55 1021 30.15 850 25.1 1.3 34.4 87 -0.6 30.9
19:00 1021 30.15 850 25.1 1.3 34.4 86 -0.7 30.7
19:05 1021 30.15 850 25.1 1.3 34.4 85 -0.9 30.5
19:10 1021 30.15 850 25.1 1.4 34.6 85 -0.9 30.4
19:15 1021 30.15 850 25.1 1.5 34.7 84 -0.9 30.3
19:20 1021 30.15 850 25.1 1.7 35 84 -0.8 30.5
19:25 1021 30.15 850 25.1 1.8 35.2 82 -0.9 30.3
19:30 1021 30.15 850 25.1 1.9 35.4 82 -0.8 30.5
19:35 1021 30.15 850 25.1 1.9 35.4 81 -1.1 30
19:40 1021 30.15 850 25.1 2 35.6 80 -1.1 30.1
19:45 1021 30.15 850 25.1 2 35.7 82 -0.6 30.8
19:50 1021 30.15 850 25.1 1.7 35.1 82 -1 30.1
19:55 1021 30.15 850 25.1 1.5 34.8 81 -1.4 29.4
20:00 1021 30.15 850 25.1 1.6 34.9 82 -1.2 29.8
20:05 1021 30.15 850 25.1 1.5 34.7 84 -0.9 30.3
20:10 1021 30.15 850 25.1 1.4 34.5 86 -0.8 30.6
20:15 1021 30.15 850 25.1 1.2 34.2 86 -0.9 30.4
20:20 1021 30.15 850 25.1 1.1 34.1 87 -0.8 30.5
20:25 1021 30.15 850 25.1 1 33.9 86 -1 30.2
20:30 1021 30.15 850 25.1 1 33.8 85 -1.2 29.8
20:35 1021 30.15 850 25.1 1.1 33.9 84 -1.3 29.7
20:40 1021 30.15 850 25.1 1 33.8 86 -1.2 29.9
20:45 1021 30.15 850 25.1 0.8 33.5 86 -1.3 29.7
20:50 1021 30.15 850 25.1 0.8 33.4 86 -1.4 29.5
20:55 1021 30.15 850 25.1 0.7 33.3 85 -1.4 29.4
21:00 1021 30.15 850 25.1 0.6 33.1 86 -1.4 29.4
21:05 1021 30.15 850 25.1 0.2 32.3 88 -1.5 29.3
21:10 1021 30.15 850 25.1 -0 32 89 -1.6 29
21:15 1021 30.15 850 25.1 -0.2 31.7 89 -1.7 28.9
21:20 1021 30.15 850 25.1 -0.2 31.7 89 -1.8 28.8
21:25 1021 30.15 850 25.1 0 32 88 -1.7 28.9
21:30 1021 30.15 850 25.1 0.3 32.6 86 -1.7 28.9
21:35 1021 30.15 850 25.1 0.4 32.8 85 -1.8 28.8
21:40 1021 30.15 850 25.1 0.4 32.8 85 -1.8 28.8
21:45 1021 30.15 850 25.1 0.4 32.7 85 -1.9 28.6
21:50 1021 30.15 850 25.1 0.6 33.2 81 -2.2 28.1
21:55 1021 30.15 850 25.1 0.9 33.5 83 -1.8 28.8
22:00 1021 30.15 850 25.1 0.6 33.2 83 -1.8 28.7
22:05 1021 30.15 850 25.1 0.5 32.9 84 -2 28.5
22:10 1021 30.15 850 25.1 0.1 32.2 85 -2.1 28.3
22:15 1021 30.15 850 25.1 -0.2 31.6 87 -2.1 28.2
22:20 1021 30.15 850 25.1 -0.2 31.6 87 -2.1 28.3
22:25 1021 30.15 850 25.1 -0 32 87 -2 28.4
22:30 1021 30.15 850 25.1 0.3 32.5 85 -2 28.5
22:35 1021 30.15 850 25.1 0.4 32.7 85 -1.8 28.7
22:40 1021 30.15 850 25.1 0.3 32.5 85 -1.9 28.5
22:45 1021 30.15 850 25.1 0.2 32.4 84 -2.1 28.2
22:50 1021 30.15 850 25.1 0.3 32.6 83 -2.2 28.1
22:55 1021 30.15 850 25.1 0 32.1 85 -2.2 28
23:00 1021 30.15 850 25.1 -0.5 31.1 87 -2.4 27.6
23:05 1021 30.15 850 25.1 -0.6 30.9 86 -2.6 27.4
23:10 1021 30.15 850 25.1 -0.1 31.8 83 -2.7 27.2
23:15 1021 30.15 850 25.1 0.3 32.5 81 -2.6 27.3
23:20 1021 30.15 850 25.1 0.6 33.1 79 -2.6 27.2
23:25 1021 30.15 850 25.1 0.8 33.4 78 -2.7 27.2
23:30 1021 30.15 850 25.1 1 33.7 77 -2.7 27.2
23:35 1021 30.15 850 25.1 0.9 33.5 76 -2.9 26.9
23:40 1021 30.15 850 25.1 0.9 33.6 77 -2.7 27.1
23:45 1021 30.15 850 25.1 0.8 33.4 77 -2.7 27.1
23:50 1021 30.15 850 25.1 0.8 33.5 78 -2.6 27.3
23:55 1021 30.15 850 25.1 1 33.7 77 -2.7 27.2
24:00 1021 30.15 850 25.1 1 33.9 77 -2.6 27.3